Demopolis Municipal Airport


Codes: KDYA/
Name: Demopolis Municipal Airport
City: Demopolis
Country: United States
Elevation: 113 ft.

Photos at Demopolis Municipal Airport


   Photos courtesy of SpottingLog. You can add your own sightings and photos by signing up for a free trial today.



No photos found.

Weather at Demopolis Municipal Airport


Time (UTC)DescriptionTempratureWindCloud coverageVisibilityPressureHumidity
16-Jun-2024 12:00Clear Sky23°C2 mph, SE0%10000m1015hPa92%
16-Jun-2024 15:00Clear Sky28°C4 mph, SE0%10000m1015hPa68%
16-Jun-2024 18:00Clear Sky35°C9 mph, SE1%10000m1015hPa38%
16-Jun-2024 21:00Overcast Clouds36°C9 mph, SE96%10000m1013hPa34%
17-Jun-2024 00:00Overcast Clouds28°C9 mph, S98%10000m1014hPa70%
17-Jun-2024 03:00Overcast Clouds24°C4 mph, S100%10000m1016hPa85%
17-Jun-2024 06:00Overcast Clouds24°C2 mph, SE100%10000m1016hPa82%
17-Jun-2024 09:00Light Rain23°C4 mph, SE100%10000m1016hPa85%
17-Jun-2024 12:00Overcast Clouds24°C4 mph, SE97%10000m1017hPa89%
17-Jun-2024 15:00Overcast Clouds30°C4 mph, SE88%10000m1017hPa54%
17-Jun-2024 18:00Overcast Clouds33°C7 mph, SE90%10000m1016hPa42%
17-Jun-2024 21:00Overcast Clouds29°C2 mph, NE100%10000m1015hPa62%
18-Jun-2024 00:00Light Rain26°C4 mph, SW100%10000m1015hPa80%
18-Jun-2024 03:00Overcast Clouds23°C4 mph, NW100%10000m1017hPa94%
18-Jun-2024 06:00Overcast Clouds23°C2 mph, N100%10000m1016hPa92%
18-Jun-2024 09:00Overcast Clouds23°C4 mph, E100%10000m1016hPa86%
18-Jun-2024 12:00Overcast Clouds24°C7 mph, E100%10000m1016hPa68%
18-Jun-2024 15:00Overcast Clouds28°C11 mph, SE100%10000m1017hPa55%
18-Jun-2024 18:00Overcast Clouds32°C9 mph, SE100%10000m1016hPa38%
18-Jun-2024 21:00Overcast Clouds30°C9 mph, SE100%10000m1016hPa52%
19-Jun-2024 00:00Overcast Clouds27°C7 mph, NE100%10000m1015hPa63%
19-Jun-2024 03:00Overcast Clouds26°C7 mph, E100%10000m1016hPa70%
19-Jun-2024 06:00Overcast Clouds24°C4 mph, E100%10000m1016hPa80%
19-Jun-2024 09:00Overcast Clouds25°C9 mph, E100%10000m1017hPa59%
19-Jun-2024 12:00Overcast Clouds24°C9 mph, E100%10000m1018hPa74%
19-Jun-2024 15:00Overcast Clouds28°C13 mph, E100%10000m1020hPa63%
19-Jun-2024 18:00Overcast Clouds31°C13 mph, E100%10000m1019hPa45%
19-Jun-2024 21:00Overcast Clouds31°C13 mph, E100%10000m1018hPa38%
20-Jun-2024 00:00Overcast Clouds29°C11 mph, E100%10000m1018hPa52%
20-Jun-2024 03:00Overcast Clouds23°C4 mph, E100%10000m1019hPa74%
20-Jun-2024 06:00Overcast Clouds22°C4 mph, E100%10000m1019hPa76%
20-Jun-2024 09:00Overcast Clouds22°C9 mph, E100%10000m1019hPa79%
20-Jun-2024 12:00Overcast Clouds22°C9 mph, E100%10000m1021hPa75%
20-Jun-2024 15:00Overcast Clouds27°C13 mph, E100%10000m1022hPa48%
20-Jun-2024 18:00Overcast Clouds32°C11 mph, E100%10000m1020hPa31%
20-Jun-2024 21:00Overcast Clouds34°C11 mph, E88%10000m1018hPa27%
21-Jun-2024 00:00Broken Clouds29°C4 mph, NE64%10000m1017hPa46%
21-Jun-2024 03:00Broken Clouds26°C4 mph, E83%10000m1019hPa62%
21-Jun-2024 06:00Overcast Clouds23°C4 mph, NE92%10000m1018hPa72%
21-Jun-2024 09:00Few Clouds22°C7 mph, N11%10000m1017hPa77%